Main page
METAR-TAF:

METAR-TAF

Airports :

Nagasaki Airport

Nagasaki, Japan

latitude: 32-55N, longitude: 129-55E, elevation: 2 m

Current weather observation

The report was made 53 minutes ago, at 11:00 UTC
Wind 15 kt from the North
Temperature 10°C
Humidity 93%
Pressure 1020 hPa
Visibility 10 km or more
Few clouds at a height of 700 ft
Scattered clouds at a height of 1000 ft
Broken clouds at a height of 1500 ft
light rain showers,

METAR: RJFU 221100Z 36015KT 9999 -SHRA FEW007 SCT010 BKN015 10/09 Q1020

Time: 20:53 (11:53 UTC)

Forecast

The report was made 45 minutes ago, at 11:08 UTC
Forecast valid from 22 at 12 UTC to 23 at 18 UTC
Wind 12 kt from the North
Visibility: 9000 m
Few clouds at a height of 500 ft
Scattered clouds at a height of 1000 ft
Broken clouds at a height of 1500 ft
light rain showers,

TAF: RJFU 221108Z 2212/2318 01012KT 9000 -SHRA FEW005 SCT010 BKN015

Weather observations and forecasts of more than 4000 airports (METAR and TAF reports).

The available stations are represented by yellow and red dots on the map.

Hover mouse over dot to see the name of the station.

Then click to see weather observations and forecasts.

To change the map : click on the green buttons with a black cross to zoom in, on the green button with a dash to zoom out, or on the green arrows for adjacent maps.


METAR-TAF: